sensor_id;sensor_type;location;lat;lon;timestamp;temperature;humidity
29539;DHT22;16482;51.046;4.498;2022-07-29T00:00:35;25.70;40.00
29539;DHT22;16482;51.046;4.498;2022-07-29T00:03:02;25.70;40.00
29539;DHT22;16482;51.046;4.498;2022-07-29T00:05:27;25.70;40.10
29539;DHT22;16482;51.046;4.498;2022-07-29T00:07:54;25.70;40.10
29539;DHT22;16482;51.046;4.498;2022-07-29T00:10:20;25.70;40.00
29539;DHT22;16482;51.046;4.498;2022-07-29T00:12:46;25.70;40.10
29539;DHT22;16482;51.046;4.498;2022-07-29T00:15:14;25.70;40.00
29539;DHT22;16482;51.046;4.498;2022-07-29T00:17:43;25.70;40.00
29539;DHT22;16482;51.046;4.498;2022-07-29T00:20:14;25.70;40.00
29539;DHT22;16482;51.046;4.498;2022-07-29T00:22:43;25.70;40.00
29539;DHT22;16482;51.046;4.498;2022-07-29T00:25:12;25.70;40.00
29539;DHT22;16482;51.046;4.498;2022-07-29T00:27:46;25.70;40.00
29539;DHT22;16482;51.046;4.498;2022-07-29T00:30:12;25.70;40.00
29539;DHT22;16482;51.046;4.498;2022-07-29T00:32:40;25.70;40.10
29539;DHT22;16482;51.046;4.498;2022-07-29T00:35:06;25.60;40.00
29539;DHT22;16482;51.046;4.498;2022-07-29T00:37:51;25.60;40.00
29539;DHT22;16482;51.046;4.498;2022-07-29T00:40:17;25.70;40.00
29539;DHT22;16482;51.046;4.498;2022-07-29T00:42:46;25.70;40.00
29539;DHT22;16482;51.046;4.498;2022-07-29T00:45:13;25.60;40.00
29539;DHT22;16482;51.046;4.498;2022-07-29T00:47:39;25.70;40.00
29539;DHT22;16482;51.046;4.498;2022-07-29T00:50:10;25.60;39.90
29539;DHT22;16482;51.046;4.498;2022-07-29T00:52:38;25.70;40.00
29539;DHT22;16482;51.046;4.498;2022-07-29T00:55:13;25.70;40.00
29539;DHT22;16482;51.046;4.498;2022-07-29T00:57:48;25.60;40.00
29539;DHT22;16482;51.046;4.498;2022-07-29T01:00:17;25.70;40.00
29539;DHT22;16482;51.046;4.498;2022-07-29T01:02:44;25.60;40.00
29539;DHT22;16482;51.046;4.498;2022-07-29T01:05:14;25.60;39.90
29539;DHT22;16482;51.046;4.498;2022-07-29T01:07:41;25.60;40.60
29539;DHT22;16482;51.046;4.498;2022-07-29T01:10:13;25.60;40.00
29539;DHT22;16482;51.046;4.498;2022-07-29T01:12:40;25.60;40.00
29539;DHT22;16482;51.046;4.498;2022-07-29T01:15:14;25.60;39.90
29539;DHT22;16482;51.046;4.498;2022-07-29T01:18:18;25.60;39.90
29539;DHT22;16482;51.046;4.498;2022-07-29T01:21:21;25.70;40.00
29539;DHT22;16482;51.046;4.498;2022-07-29T01:24:30;25.60;40.00
29539;DHT22;16482;51.046;4.498;2022-07-29T01:27:19;25.60;40.00
29539;DHT22;16482;51.046;4.498;2022-07-29T01:29:56;25.60;40.00
29539;DHT22;16482;51.046;4.498;2022-07-29T01:32:27;25.60;40.00
29539;DHT22;16482;51.046;4.498;2022-07-29T01:34:58;25.60;40.00
29539;DHT22;16482;51.046;4.498;2022-07-29T01:40:30;25.60;40.00
29539;DHT22;16482;51.046;4.498;2022-07-29T01:43:08;25.60;40.00
29539;DHT22;16482;51.046;4.498;2022-07-29T01:45:45;25.60;40.00
29539;DHT22;16482;51.046;4.498;2022-07-29T01:51:03;25.60;40.00
29539;DHT22;16482;51.046;4.498;2022-07-29T01:53:47;25.60;40.00
29539;DHT22;16482;51.046;4.498;2022-07-29T01:56:16;25.60;40.00
29539;DHT22;16482;51.046;4.498;2022-07-29T01:58:45;25.60;40.10
29539;DHT22;16482;51.046;4.498;2022-07-29T02:01:13;25.60;40.10
29539;DHT22;16482;51.046;4.498;2022-07-29T02:03:43;25.60;40.10
29539;DHT22;16482;51.046;4.498;2022-07-29T02:06:11;25.60;40.10
29539;DHT22;16482;51.046;4.498;2022-07-29T02:08:39;25.60;40.10
29539;DHT22;16482;51.046;4.498;2022-07-29T02:11:05;25.60;40.10
29539;DHT22;16482;51.046;4.498;2022-07-29T02:13:34;25.60;40.00
29539;DHT22;16482;51.046;4.498;2022-07-29T02:16:02;25.60;40.00
29539;DHT22;16482;51.046;4.498;2022-07-29T02:18:30;25.60;40.10
29539;DHT22;16482;51.046;4.498;2022-07-29T02:21:06;25.60;40.10
29539;DHT22;16482;51.046;4.498;2022-07-29T02:23:35;25.60;40.10
29539;DHT22;16482;51.046;4.498;2022-07-29T02:26:03;25.60;40.20
29539;DHT22;16482;51.046;4.498;2022-07-29T02:28:38;25.60;40.20
29539;DHT22;16482;51.046;4.498;2022-07-29T02:31:05;25.60;40.10
29539;DHT22;16482;51.046;4.498;2022-07-29T02:33:35;25.60;40.20
29539;DHT22;16482;51.046;4.498;2022-07-29T02:36:09;25.60;40.20
29539;DHT22;16482;51.046;4.498;2022-07-29T02:38:35;25.60;40.20
29539;DHT22;16482;51.046;4.498;2022-07-29T02:41:31;25.60;40.20
29539;DHT22;16482;51.046;4.498;2022-07-29T02:44:05;25.60;40.20
29539;DHT22;16482;51.046;4.498;2022-07-29T02:46:34;25.60;40.30
29539;DHT22;16482;51.046;4.498;2022-07-29T02:49:07;25.60;40.40
29539;DHT22;16482;51.046;4.498;2022-07-29T02:51:45;25.50;40.40
29539;DHT22;16482;51.046;4.498;2022-07-29T02:56:58;25.50;40.40
29539;DHT22;16482;51.046;4.498;2022-07-29T02:59:26;25.50;40.60
29539;DHT22;16482;51.046;4.498;2022-07-29T03:01:54;25.50;40.50
29539;DHT22;16482;51.046;4.498;2022-07-29T03:04:24;25.50;40.50
29539;DHT22;16482;51.046;4.498;2022-07-29T03:06:52;25.50;40.50
29539;DHT22;16482;51.046;4.498;2022-07-29T03:09:26;25.60;40.60
29539;DHT22;16482;51.046;4.498;2022-07-29T03:11:54;25.60;40.60
29539;DHT22;16482;51.046;4.498;2022-07-29T03:14:28;25.50;40.50
29539;DHT22;16482;51.046;4.498;2022-07-29T03:16:57;25.50;40.60
29539;DHT22;16482;51.046;4.498;2022-07-29T03:19:24;25.50;40.50
29539;DHT22;16482;51.046;4.498;2022-07-29T03:21:54;25.50;40.60
29539;DHT22;16482;51.046;4.498;2022-07-29T03:24:29;25.50;40.60
29539;DHT22;16482;51.046;4.498;2022-07-29T03:26:56;25.50;40.60
29539;DHT22;16482;51.046;4.498;2022-07-29T03:29:22;25.50;40.70
29539;DHT22;16482;51.046;4.498;2022-07-29T03:31:56;25.50;40.70
29539;DHT22;16482;51.046;4.498;2022-07-29T03:34:22;25.50;40.70
29539;DHT22;16482;51.046;4.498;2022-07-29T03:36:56;25.50;40.70
29539;DHT22;16482;51.046;4.498;2022-07-29T03:39:27;25.60;40.80
29539;DHT22;16482;51.046;4.498;2022-07-29T03:41:56;25.50;40.70
29539;DHT22;16482;51.046;4.498;2022-07-29T03:44:24;25.50;40.70
29539;DHT22;16482;51.046;4.498;2022-07-29T03:46:51;25.50;40.70
29539;DHT22;16482;51.046;4.498;2022-07-29T03:49:20;25.50;40.70
29539;DHT22;16482;51.046;4.498;2022-07-29T03:51:56;25.50;40.70
29539;DHT22;16482;51.046;4.498;2022-07-29T03:54:24;25.50;40.80
29539;DHT22;16482;51.046;4.498;2022-07-29T03:56:54;25.50;40.80
29539;DHT22;16482;51.046;4.498;2022-07-29T03:59:23;25.50;40.80
29539;DHT22;16482;51.046;4.498;2022-07-29T04:01:53;25.50;40.80
29539;DHT22;16482;51.046;4.498;2022-07-29T04:04:24;25.50;40.90
29539;DHT22;16482;51.046;4.498;2022-07-29T04:06:53;25.50;40.80
29539;DHT22;16482;51.046;4.498;2022-07-29T04:09:22;25.50;40.90
29539;DHT22;16482;51.046;4.498;2022-07-29T04:11:55;25.50;40.90
29539;DHT22;16482;51.046;4.498;2022-07-29T04:14:21;25.50;41.50
29539;DHT22;16482;51.046;4.498;2022-07-29T04:16:54;25.50;40.90
29539;DHT22;16482;51.046;4.498;2022-07-29T04:19:23;25.40;40.80
29539;DHT22;16482;51.046;4.498;2022-07-29T04:22:00;25.50;40.90
29539;DHT22;16482;51.046;4.498;2022-07-29T04:24:27;25.50;40.90
29539;DHT22;16482;51.046;4.498;2022-07-29T04:26:53;25.50;40.90
29539;DHT22;16482;51.046;4.498;2022-07-29T04:29:22;25.50;40.90
29539;DHT22;16482;51.046;4.498;2022-07-29T04:31:55;25.40;40.90
29539;DHT22;16482;51.046;4.498;2022-07-29T04:34:23;25.50;41.00
29539;DHT22;16482;51.046;4.498;2022-07-29T04:36:49;25.40;41.00
29539;DHT22;16482;51.046;4.498;2022-07-29T04:39:15;25.40;41.00
29539;DHT22;16482;51.046;4.498;2022-07-29T04:41:44;25.40;41.10
29539;DHT22;16482;51.046;4.498;2022-07-29T04:44:10;25.40;41.10
29539;DHT22;16482;51.046;4.498;2022-07-29T04:46:39;25.40;41.20
29539;DHT22;16482;51.046;4.498;2022-07-29T04:49:04;25.40;41.20
29539;DHT22;16482;51.046;4.498;2022-07-29T04:51:30;25.40;41.20
29539;DHT22;16482;51.046;4.498;2022-07-29T04:53:56;25.40;41.30
29539;DHT22;16482;51.046;4.498;2022-07-29T04:56:22;25.40;41.20
29539;DHT22;16482;51.046;4.498;2022-07-29T04:58:48;25.40;41.30
29539;DHT22;16482;51.046;4.498;2022-07-29T05:01:14;25.40;41.20
29539;DHT22;16482;51.046;4.498;2022-07-29T05:03:40;25.40;41.20
29539;DHT22;16482;51.046;4.498;2022-07-29T05:06:06;25.40;41.20
29539;DHT22;16482;51.046;4.498;2022-07-29T05:08:32;25.40;41.30
29539;DHT22;16482;51.046;4.498;2022-07-29T05:11:07;25.40;41.40
29539;DHT22;16482;51.046;4.498;2022-07-29T05:13:32;25.40;41.40
29539;DHT22;16482;51.046;4.498;2022-07-29T05:16:01;25.40;41.50
29539;DHT22;16482;51.046;4.498;2022-07-29T05:18:30;25.40;41.50
29539;DHT22;16482;51.046;4.498;2022-07-29T05:21:03;25.40;41.50
29539;DHT22;16482;51.046;4.498;2022-07-29T05:23:35;25.40;41.50
29539;DHT22;16482;51.046;4.498;2022-07-29T05:26:04;25.50;41.50
29539;DHT22;16482;51.046;4.498;2022-07-29T05:28:38;25.40;41.60
29539;DHT22;16482;51.046;4.498;2022-07-29T05:31:04;25.40;41.60
29539;DHT22;16482;51.046;4.498;2022-07-29T05:33:33;25.40;41.70
29539;DHT22;16482;51.046;4.498;2022-07-29T05:36:04;25.40;41.90
29539;DHT22;16482;51.046;4.498;2022-07-29T05:38:35;25.40;41.80
29539;DHT22;16482;51.046;4.498;2022-07-29T05:41:04;25.30;41.80
29539;DHT22;16482;51.046;4.498;2022-07-29T05:43:38;25.40;42.00
29539;DHT22;16482;51.046;4.498;2022-07-29T05:46:04;25.40;42.10
29539;DHT22;16482;51.046;4.498;2022-07-29T05:48:33;25.30;42.20
29539;DHT22;16482;51.046;4.498;2022-07-29T05:51:02;25.40;42.20
29539;DHT22;16482;51.046;4.498;2022-07-29T05:53:34;25.40;42.20
29539;DHT22;16482;51.046;4.498;2022-07-29T05:56:06;25.40;42.20
29539;DHT22;16482;51.046;4.498;2022-07-29T05:58:32;25.40;42.30
29539;DHT22;16482;51.046;4.498;2022-07-29T06:01:07;25.40;42.30
29539;DHT22;16482;51.046;4.498;2022-07-29T06:03:33;25.40;42.40
29539;DHT22;16482;51.046;4.498;2022-07-29T06:06:02;25.30;42.30
29539;DHT22;16482;51.046;4.498;2022-07-29T06:08:34;25.30;42.50
29539;DHT22;16482;51.046;4.498;2022-07-29T06:11:04;25.40;42.60
29539;DHT22;16482;51.046;4.498;2022-07-29T06:13:30;25.30;42.50
29539;DHT22;16482;51.046;4.498;2022-07-29T06:16:05;25.40;42.50
29539;DHT22;16482;51.046;4.498;2022-07-29T06:18:31;25.40;42.50
29539;DHT22;16482;51.046;4.498;2022-07-29T06:21:00;25.40;42.80
29539;DHT22;16482;51.046;4.498;2022-07-29T06:23:29;25.30;42.90
29539;DHT22;16482;51.046;4.498;2022-07-29T06:25:55;25.30;42.90
29539;DHT22;16482;51.046;4.498;2022-07-29T06:28:23;25.30;42.80
29539;DHT22;16482;51.046;4.498;2022-07-29T06:30:49;25.40;42.80
29539;DHT22;16482;51.046;4.498;2022-07-29T06:33:18;25.30;42.80
29539;DHT22;16482;51.046;4.498;2022-07-29T06:35:44;25.30;42.80
29539;DHT22;16482;51.046;4.498;2022-07-29T06:38:13;25.30;42.90
29539;DHT22;16482;51.046;4.498;2022-07-29T06:40:43;25.50;42.70
29539;DHT22;16482;51.046;4.498;2022-07-29T06:46:04;26.50;40.90
29539;DHT22;16482;51.046;4.498;2022-07-29T06:48:34;26.90;40.10
29539;DHT22;16482;51.046;4.498;2022-07-29T06:51:05;27.20;39.40
29539;DHT22;16482;51.046;4.498;2022-07-29T06:53:34;27.40;39.20
29539;DHT22;16482;51.046;4.498;2022-07-29T06:56:05;27.50;38.90
29539;DHT22;16482;51.046;4.498;2022-07-29T06:58:35;27.60;38.70
29539;DHT22;16482;51.046;4.498;2022-07-29T07:01:05;27.70;38.70
29539;DHT22;16482;51.046;4.498;2022-07-29T07:03:33;27.70;38.70
29539;DHT22;16482;51.046;4.498;2022-07-29T07:06:02;27.80;38.60
29539;DHT22;16482;51.046;4.498;2022-07-29T07:08:28;27.90;38.60
29539;DHT22;16482;51.046;4.498;2022-07-29T07:10:54;28.00;38.50
29539;DHT22;16482;51.046;4.498;2022-07-29T07:13:23;28.10;38.40
29539;DHT22;16482;51.046;4.498;2022-07-29T07:15:49;28.20;38.10
29539;DHT22;16482;51.046;4.498;2022-07-29T07:18:16;28.20;38.10
29539;DHT22;16482;51.046;4.498;2022-07-29T07:20:42;28.20;38.00
29539;DHT22;16482;51.046;4.498;2022-07-29T07:23:08;28.30;38.20
29539;DHT22;16482;51.046;4.498;2022-07-29T07:25:34;28.20;38.10
29539;DHT22;16482;51.046;4.498;2022-07-29T07:28:00;28.20;38.20
29539;DHT22;16482;51.046;4.498;2022-07-29T07:30:26;28.20;38.30
29539;DHT22;16482;51.046;4.498;2022-07-29T07:32:52;28.10;38.30
29539;DHT22;16482;51.046;4.498;2022-07-29T07:35:18;28.10;38.60
29539;DHT22;16482;51.046;4.498;2022-07-29T07:37:45;28.00;39.00
29539;DHT22;16482;51.046;4.498;2022-07-29T07:40:11;27.80;39.20
29539;DHT22;16482;51.046;4.498;2022-07-29T07:42:44;27.70;39.40
29539;DHT22;16482;51.046;4.498;2022-07-29T07:45:13;27.50;39.60
29539;DHT22;16482;51.046;4.498;2022-07-29T07:47:39;27.40;39.90
29539;DHT22;16482;51.046;4.498;2022-07-29T07:50:09;27.30;40.20
29539;DHT22;16482;51.046;4.498;2022-07-29T07:52:49;27.20;40.50
29539;DHT22;16482;51.046;4.498;2022-07-29T07:55:18;27.10;40.80
29539;DHT22;16482;51.046;4.498;2022-07-29T07:57:45;27.10;40.90
29539;DHT22;16482;51.046;4.498;2022-07-29T08:00:20;27.00;41.20
29539;DHT22;16482;51.046;4.498;2022-07-29T08:02:47;27.00;41.40
29539;DHT22;16482;51.046;4.498;2022-07-29T08:05:13;26.90;41.60
29539;DHT22;16482;51.046;4.498;2022-07-29T08:07:45;26.90;41.80
29539;DHT22;16482;51.046;4.498;2022-07-29T08:10:15;26.90;41.90
29539;DHT22;16482;51.046;4.498;2022-07-29T08:13:08;26.90;42.10
29539;DHT22;16482;51.046;4.498;2022-07-29T08:15:34;26.90;42.20
29539;DHT22;16482;51.046;4.498;2022-07-29T08:18:01;26.90;42.40
29539;DHT22;16482;51.046;4.498;2022-07-29T08:20:29;26.80;42.40
29539;DHT22;16482;51.046;4.498;2022-07-29T08:22:57;26.90;42.70
29539;DHT22;16482;51.046;4.498;2022-07-29T08:25:23;26.80;42.60
29539;DHT22;16482;51.046;4.498;2022-07-29T08:27:49;26.90;42.60
29539;DHT22;16482;51.046;4.498;2022-07-29T08:30:15;26.80;42.50
29539;DHT22;16482;51.046;4.498;2022-07-29T08:32:42;26.80;42.50
29539;DHT22;16482;51.046;4.498;2022-07-29T08:35:10;26.80;42.60
29539;DHT22;16482;51.046;4.498;2022-07-29T08:37:45;26.80;42.50
29539;DHT22;16482;51.046;4.498;2022-07-29T08:40:14;26.80;42.40
29539;DHT22;16482;51.046;4.498;2022-07-29T08:42:47;26.80;42.60
29539;DHT22;16482;51.046;4.498;2022-07-29T08:45:13;26.80;42.50
29539;DHT22;16482;51.046;4.498;2022-07-29T08:47:39;26.80;42.60
29539;DHT22;16482;51.046;4.498;2022-07-29T08:50:09;26.70;42.60
29539;DHT22;16482;51.046;4.498;2022-07-29T08:52:43;26.80;42.60
29539;DHT22;16482;51.046;4.498;2022-07-29T08:55:18;26.80;42.70
29539;DHT22;16482;51.046;4.498;2022-07-29T08:57:44;26.80;42.60
29539;DHT22;16482;51.046;4.498;2022-07-29T09:00:13;26.80;42.70
29539;DHT22;16482;51.046;4.498;2022-07-29T09:02:53;26.80;42.60
29539;DHT22;16482;51.046;4.498;2022-07-29T09:05:23;26.90;42.60
29539;DHT22;16482;51.046;4.498;2022-07-29T09:07:50;26.80;42.60
29539;DHT22;16482;51.046;4.498;2022-07-29T09:10:16;26.80;42.70
29539;DHT22;16482;51.046;4.498;2022-07-29T09:12:45;26.80;42.70
29539;DHT22;16482;51.046;4.498;2022-07-29T09:15:15;26.80;42.70
29539;DHT22;16482;51.046;4.498;2022-07-29T09:17:44;26.70;42.60
29539;DHT22;16482;51.046;4.498;2022-07-29T09:20:13;26.70;42.60
29539;DHT22;16482;51.046;4.498;2022-07-29T09:22:39;26.70;42.60
29539;DHT22;16482;51.046;4.498;2022-07-29T09:25:05;26.70;42.70
29539;DHT22;16482;51.046;4.498;2022-07-29T09:27:34;26.70;42.60
29539;DHT22;16482;51.046;4.498;2022-07-29T09:30:05;26.60;42.50
29539;DHT22;16482;51.046;4.498;2022-07-29T09:33:00;26.70;42.60
29539;DHT22;16482;51.046;4.498;2022-07-29T09:35:28;26.70;42.50
29539;DHT22;16482;51.046;4.498;2022-07-29T09:37:54;26.60;42.40
29539;DHT22;16482;51.046;4.498;2022-07-29T09:40:23;26.60;42.30
29539;DHT22;16482;51.046;4.498;2022-07-29T09:42:50;26.60;42.20
29539;DHT22;16482;51.046;4.498;2022-07-29T09:45:30;26.70;42.10
29539;DHT22;16482;51.046;4.498;2022-07-29T09:47:57;26.70;42.20
29539;DHT22;16482;51.046;4.498;2022-07-29T09:50:42;26.70;42.40
29539;DHT22;16482;51.046;4.498;2022-07-29T09:53:09;26.70;42.40
29539;DHT22;16482;51.046;4.498;2022-07-29T09:55:49;26.70;42.60
29539;DHT22;16482;51.046;4.498;2022-07-29T09:58:19;26.70;42.50
29539;DHT22;16482;51.046;4.498;2022-07-29T10:00:47;26.60;42.40
29539;DHT22;16482;51.046;4.498;2022-07-29T10:03:15;26.70;42.30
29539;DHT22;16482;51.046;4.498;2022-07-29T10:05:41;26.60;42.60
29539;DHT22;16482;51.046;4.498;2022-07-29T10:08:08;26.60;42.20
29539;DHT22;16482;51.046;4.498;2022-07-29T10:10:37;26.70;42.20
29539;DHT22;16482;51.046;4.498;2022-07-29T10:13:10;26.70;42.00
29539;DHT22;16482;51.046;4.498;2022-07-29T10:15:38;26.70;41.60
29539;DHT22;16482;51.046;4.498;2022-07-29T10:18:07;26.70;41.50
29539;DHT22;16482;51.046;4.498;2022-07-29T10:20:34;26.70;41.20
29539;DHT22;16482;51.046;4.498;2022-07-29T10:23:00;26.70;41.50
29539;DHT22;16482;51.046;4.498;2022-07-29T10:25:27;26.60;41.60
29539;DHT22;16482;51.046;4.498;2022-07-29T10:27:53;26.60;41.70
29539;DHT22;16482;51.046;4.498;2022-07-29T10:30:23;26.60;41.80
29539;DHT22;16482;51.046;4.498;2022-07-29T10:35:31;26.60;41.90
29539;DHT22;16482;51.046;4.498;2022-07-29T10:38:21;26.60;42.00
29539;DHT22;16482;51.046;4.498;2022-07-29T10:41:11;26.60;42.10
29539;DHT22;16482;51.046;4.498;2022-07-29T10:46:26;26.60;42.30
29539;DHT22;16482;51.046;4.498;2022-07-29T10:54:39;26.60;42.20
29539;DHT22;16482;51.046;4.498;2022-07-29T10:59:40;26.50;42.20
29539;DHT22;16482;51.046;4.498;2022-07-29T11:05:01;26.50;42.40
29539;DHT22;16482;51.046;4.498;2022-07-29T11:07:29;26.40;42.30
29539;DHT22;16482;51.046;4.498;2022-07-29T11:15:18;26.50;42.30
29539;DHT22;16482;51.046;4.498;2022-07-29T11:20:38;26.50;42.00
29539;DHT22;16482;51.046;4.498;2022-07-29T11:23:43;26.50;41.90
29539;DHT22;16482;51.046;4.498;2022-07-29T11:31:38;26.50;42.00
29539;DHT22;16482;51.046;4.498;2022-07-29T11:39:39;26.50;41.60
29539;DHT22;16482;51.046;4.498;2022-07-29T11:44:57;26.50;41.70
29539;DHT22;16482;51.046;4.498;2022-07-29T11:47:25;26.50;41.60
29539;DHT22;16482;51.046;4.498;2022-07-29T11:49:52;26.50;41.50
29539;DHT22;16482;51.046;4.498;2022-07-29T11:52:18;26.40;41.50
29539;DHT22;16482;51.046;4.498;2022-07-29T11:54:48;26.40;41.50
29539;DHT22;16482;51.046;4.498;2022-07-29T11:57:17;26.50;41.40
29539;DHT22;16482;51.046;4.498;2022-07-29T11:59:46;26.50;41.40
29539;DHT22;16482;51.046;4.498;2022-07-29T12:02:13;26.50;41.30
29539;DHT22;16482;51.046;4.498;2022-07-29T12:04:53;26.40;41.20
29539;DHT22;16482;51.046;4.498;2022-07-29T12:07:27;26.50;41.20
29539;DHT22;16482;51.046;4.498;2022-07-29T12:09:53;26.50;41.10
29539;DHT22;16482;51.046;4.498;2022-07-29T12:12:20;26.50;41.10
29539;DHT22;16482;51.046;4.498;2022-07-29T12:14:46;26.50;41.10
29539;DHT22;16482;51.046;4.498;2022-07-29T12:17:32;26.50;41.00
29539;DHT22;16482;51.046;4.498;2022-07-29T12:20:00;26.50;40.80
29539;DHT22;16482;51.046;4.498;2022-07-29T12:22:34;26.50;41.00
29539;DHT22;16482;51.046;4.498;2022-07-29T12:25:13;26.50;40.90
29539;DHT22;16482;51.046;4.498;2022-07-29T12:27:44;26.50;40.90
29539;DHT22;16482;51.046;4.498;2022-07-29T12:30:15;26.50;40.90
29539;DHT22;16482;51.046;4.498;2022-07-29T12:32:44;26.50;40.80
29539;DHT22;16482;51.046;4.498;2022-07-29T12:35:18;26.50;40.80
29539;DHT22;16482;51.046;4.498;2022-07-29T12:37:46;26.50;40.70
29539;DHT22;16482;51.046;4.498;2022-07-29T12:40:22;26.50;40.80
29539;DHT22;16482;51.046;4.498;2022-07-29T12:43:07;26.50;40.80
29539;DHT22;16482;51.046;4.498;2022-07-29T12:45:35;26.50;40.70
29539;DHT22;16482;51.046;4.498;2022-07-29T12:48:01;26.50;40.60
29539;DHT22;16482;51.046;4.498;2022-07-29T12:50:27;26.50;40.50
29539;DHT22;16482;51.046;4.498;2022-07-29T12:52:53;26.50;40.70
29539;DHT22;16482;51.046;4.498;2022-07-29T12:55:42;26.50;40.70
29539;DHT22;16482;51.046;4.498;2022-07-29T12:58:47;26.50;40.50
29539;DHT22;16482;51.046;4.498;2022-07-29T13:01:15;26.50;40.30
29539;DHT22;16482;51.046;4.498;2022-07-29T13:03:56;26.50;40.40
29539;DHT22;16482;51.046;4.498;2022-07-29T13:06:36;26.50;40.20
29539;DHT22;16482;51.046;4.498;2022-07-29T13:09:07;26.50;40.00
29539;DHT22;16482;51.046;4.498;2022-07-29T13:11:41;26.50;40.00
29539;DHT22;16482;51.046;4.498;2022-07-29T13:14:10;26.50;40.00
29539;DHT22;16482;51.046;4.498;2022-07-29T13:17:02;26.60;40.10
29539;DHT22;16482;51.046;4.498;2022-07-29T13:22:00;26.50;39.80
29539;DHT22;16482;51.046;4.498;2022-07-29T13:24:26;26.60;39.80
29539;DHT22;16482;51.046;4.498;2022-07-29T13:26:52;26.60;39.90
29539;DHT22;16482;51.046;4.498;2022-07-29T13:29:23;26.50;39.90
29539;DHT22;16482;51.046;4.498;2022-07-29T13:31:56;26.50;39.90
29539;DHT22;16482;51.046;4.498;2022-07-29T13:34:22;26.60;39.90
29539;DHT22;16482;51.046;4.498;2022-07-29T13:36:52;26.60;39.90
29539;DHT22;16482;51.046;4.498;2022-07-29T13:39:23;26.60;39.90
29539;DHT22;16482;51.046;4.498;2022-07-29T13:41:52;26.60;39.80
29539;DHT22;16482;51.046;4.498;2022-07-29T13:44:30;26.60;39.80
29539;DHT22;16482;51.046;4.498;2022-07-29T13:46:56;26.60;39.80
29539;DHT22;16482;51.046;4.498;2022-07-29T13:49:24;26.60;39.70
29539;DHT22;16482;51.046;4.498;2022-07-29T13:51:50;26.60;39.70
29539;DHT22;16482;51.046;4.498;2022-07-29T13:54:16;26.60;39.80
29539;DHT22;16482;51.046;4.498;2022-07-29T13:56:45;26.60;39.90
29539;DHT22;16482;51.046;4.498;2022-07-29T13:59:10;26.60;39.80
29539;DHT22;16482;51.046;4.498;2022-07-29T14:01:37;26.60;39.90
29539;DHT22;16482;51.046;4.498;2022-07-29T14:04:06;26.60;39.80
29539;DHT22;16482;51.046;4.498;2022-07-29T14:06:32;26.60;39.80
29539;DHT22;16482;51.046;4.498;2022-07-29T14:08:58;26.60;39.80
29539;DHT22;16482;51.046;4.498;2022-07-29T14:11:24;26.60;39.70
29539;DHT22;16482;51.046;4.498;2022-07-29T14:13:50;26.60;39.60
29539;DHT22;16482;51.046;4.498;2022-07-29T14:16:16;26.50;39.50
29539;DHT22;16482;51.046;4.498;2022-07-29T14:18:42;26.50;39.50
29539;DHT22;16482;51.046;4.498;2022-07-29T14:21:08;26.60;40.20
29539;DHT22;16482;51.046;4.498;2022-07-29T14:23:36;26.60;39.40
29539;DHT22;16482;51.046;4.498;2022-07-29T14:26:02;26.60;39.40
29539;DHT22;16482;51.046;4.498;2022-07-29T14:28:35;26.60;39.40
29539;DHT22;16482;51.046;4.498;2022-07-29T14:31:01;26.60;39.50
29539;DHT22;16482;51.046;4.498;2022-07-29T14:33:34;26.50;39.60
29539;DHT22;16482;51.046;4.498;2022-07-29T14:36:01;26.50;39.40
29539;DHT22;16482;51.046;4.498;2022-07-29T14:38:35;26.60;39.50
29539;DHT22;16482;51.046;4.498;2022-07-29T14:41:02;26.60;39.40
29539;DHT22;16482;51.046;4.498;2022-07-29T14:43:35;26.60;39.30
29539;DHT22;16482;51.046;4.498;2022-07-29T14:46:04;26.60;39.30
29539;DHT22;16482;51.046;4.498;2022-07-29T14:48:30;26.60;39.30
29539;DHT22;16482;51.046;4.498;2022-07-29T14:50:56;26.60;39.30
29539;DHT22;16482;51.046;4.498;2022-07-29T14:53:22;26.60;39.40
29539;DHT22;16482;51.046;4.498;2022-07-29T14:55:48;26.60;39.20
29539;DHT22;16482;51.046;4.498;2022-07-29T14:58:14;26.60;39.20
29539;DHT22;16482;51.046;4.498;2022-07-29T15:00:40;26.60;39.80
29539;DHT22;16482;51.046;4.498;2022-07-29T15:03:06;26.70;39.20
29539;DHT22;16482;51.046;4.498;2022-07-29T15:05:34;26.70;39.30
29539;DHT22;16482;51.046;4.498;2022-07-29T15:08:03;26.70;39.50
29539;DHT22;16482;51.046;4.498;2022-07-29T15:10:29;26.70;39.40
29539;DHT22;16482;51.046;4.498;2022-07-29T15:12:55;26.70;39.60
29539;DHT22;16482;51.046;4.498;2022-07-29T15:15:21;26.70;39.40
29539;DHT22;16482;51.046;4.498;2022-07-29T15:17:47;26.70;40.20
29539;DHT22;16482;51.046;4.498;2022-07-29T15:20:13;26.70;39.60
29539;DHT22;16482;51.046;4.498;2022-07-29T15:22:46;26.70;39.60
29539;DHT22;16482;51.046;4.498;2022-07-29T15:25:12;26.70;39.80
29539;DHT22;16482;51.046;4.498;2022-07-29T15:27:45;26.70;39.70
29539;DHT22;16482;51.046;4.498;2022-07-29T15:30:14;26.70;39.90
29539;DHT22;16482;51.046;4.498;2022-07-29T15:32:45;26.70;40.00
29539;DHT22;16482;51.046;4.498;2022-07-29T15:35:14;26.70;40.00
29539;DHT22;16482;51.046;4.498;2022-07-29T15:37:42;26.70;40.20
29539;DHT22;16482;51.046;4.498;2022-07-29T15:40:14;26.70;40.20
29539;DHT22;16482;51.046;4.498;2022-07-29T15:42:42;26.70;40.20
29539;DHT22;16482;51.046;4.498;2022-07-29T15:45:15;26.70;39.80
29539;DHT22;16482;51.046;4.498;2022-07-29T15:47:44;26.70;39.90
29539;DHT22;16482;51.046;4.498;2022-07-29T15:50:12;26.70;39.90
29539;DHT22;16482;51.046;4.498;2022-07-29T15:52:41;26.70;39.90
29539;DHT22;16482;51.046;4.498;2022-07-29T15:55:10;26.70;40.00
29539;DHT22;16482;51.046;4.498;2022-07-29T15:57:36;26.70;39.80
29539;DHT22;16482;51.046;4.498;2022-07-29T16:00:14;26.70;39.80
29539;DHT22;16482;51.046;4.498;2022-07-29T16:02:42;26.70;39.90
29539;DHT22;16482;51.046;4.498;2022-07-29T16:05:08;26.70;40.10
29539;DHT22;16482;51.046;4.498;2022-07-29T16:07:54;26.70;39.80
29539;DHT22;16482;51.046;4.498;2022-07-29T16:10:20;26.70;39.90
29539;DHT22;16482;51.046;4.498;2022-07-29T16:12:46;26.80;40.00
29539;DHT22;16482;51.046;4.498;2022-07-29T16:15:14;26.80;39.70
29539;DHT22;16482;51.046;4.498;2022-07-29T16:17:49;26.70;39.90
29539;DHT22;16482;51.046;4.498;2022-07-29T16:20:15;26.70;40.00
29539;DHT22;16482;51.046;4.498;2022-07-29T16:22:44;26.80;39.90
29539;DHT22;16482;51.046;4.498;2022-07-29T16:25:17;26.70;39.90
29539;DHT22;16482;51.046;4.498;2022-07-29T16:27:46;26.70;40.50
29539;DHT22;16482;51.046;4.498;2022-07-29T16:30:15;26.70;39.80
29539;DHT22;16482;51.046;4.498;2022-07-29T16:32:48;26.70;39.80
29539;DHT22;16482;51.046;4.498;2022-07-29T16:35:14;26.80;39.80
29539;DHT22;16482;51.046;4.498;2022-07-29T16:37:47;26.80;39.70
29539;DHT22;16482;51.046;4.498;2022-07-29T16:40:16;26.80;39.50